createdAt,value
2018-03-22T00:00:52.298Z,52.00
2018-03-22T00:03:22.124Z,51.90
2018-03-22T00:05:51.198Z,51.70
2018-03-22T00:08:20.272Z,51.70
2018-03-22T00:10:49.561Z,51.70
2018-03-22T00:13:18.589Z,51.70
2018-03-22T00:15:48.404Z,51.40
2018-03-22T00:18:17.488Z,51.40
2018-03-22T00:20:47.291Z,51.70
2018-03-22T00:23:16.409Z,51.60
2018-03-22T00:25:46.207Z,52.40
2018-03-22T00:28:15.250Z,52.40
2018-03-22T00:30:46.300Z,52.10
2018-03-22T00:33:15.328Z,52.00
2018-03-22T00:35:44.391Z,52.40
2018-03-22T00:38:13.454Z,52.20
2018-03-22T00:40:42.517Z,52.00
2018-03-22T00:43:12.317Z,52.20
2018-03-22T00:45:42.176Z,52.40
2018-03-22T00:48:11.206Z,52.30
2018-03-22T00:50:40.329Z,52.30
2018-03-22T00:53:09.575Z,52.40
2018-03-22T00:55:39.500Z,52.70
2018-03-22T00:58:08.604Z,52.60
2018-03-22T01:00:38.544Z,53.20
2018-03-22T01:03:07.605Z,53.20
2018-03-22T01:05:36.703Z,53.30
2018-03-22T01:08:06.599Z,52.80
2018-03-22T01:10:35.628Z,52.80
2018-03-22T01:13:05.453Z,53.00
2018-03-22T01:15:35.247Z,52.60
2018-03-22T01:18:04.344Z,52.60
2018-03-22T01:20:33.377Z,52.70
2018-03-22T01:23:02.411Z,52.60
2018-03-22T01:25:31.483Z,52.60
2018-03-22T01:28:00.506Z,52.60
2018-03-22T01:30:37.345Z,52.80
2018-03-22T01:33:06.379Z,53.00
2018-03-22T01:35:36.180Z,53.30
2018-03-22T01:38:05.233Z,53.30
2018-03-22T01:40:34.324Z,53.30
2018-03-22T01:43:03.376Z,53.40
2018-03-22T01:45:33.187Z,53.40
2018-03-22T01:48:02.265Z,53.40
2018-03-22T01:50:31.300Z,53.30
2018-03-22T01:53:15.262Z,53.40
2018-03-22T01:55:44.340Z,53.30
2018-03-22T01:58:13.392Z,53.10
2018-03-22T02:00:42.476Z,53.30
2018-03-22T02:03:11.506Z,53.30
2018-03-22T02:05:40.566Z,54.00
2018-03-22T02:08:09.612Z,53.80
2018-03-22T02:10:38.689Z,53.60
2018-03-22T02:13:07.731Z,53.50
2018-03-22T02:15:36.776Z,53.30
2018-03-22T02:18:05.868Z,53.30
2018-03-22T02:20:36.558Z,53.70
2018-03-22T02:23:05.622Z,53.60
2018-03-22T02:25:34.656Z,53.70
2018-03-22T02:28:03.748Z,53.60
2018-03-22T02:30:32.771Z,53.50
2018-03-22T02:33:01.841Z,53.70
2018-03-22T02:35:31.653Z,53.60
2018-03-22T02:38:00.761Z,53.50
2018-03-22T02:40:29.790Z,53.50
2018-03-22T02:42:58.882Z,53.50
2018-03-22T02:45:27.900Z,53.50
2018-03-22T02:47:56.927Z,53.80
2018-03-22T02:50:26.004Z,54.30
2018-03-22T02:52:55.031Z,54.20
2018-03-22T02:55:24.052Z,54.00
2018-03-22T02:57:53.131Z,53.80
2018-03-22T03:00:22.193Z,53.80
2018-03-22T03:02:51.222Z,53.80
2018-03-22T03:05:20.321Z,53.90
2018-03-22T03:07:49.358Z,53.70
2018-03-22T03:10:19.175Z,53.50
2018-03-22T03:12:48.230Z,53.40
2018-03-22T03:15:17.268Z,53.40
2018-03-22T03:17:47.094Z,53.60
2018-03-22T03:20:16.117Z,53.50
2018-03-22T03:22:45.161Z,53.70
2018-03-22T03:25:14.958Z,54.30
2018-03-22T03:27:44.039Z,54.10
2018-03-22T03:30:13.093Z,54.30
2018-03-22T03:32:42.153Z,54.40
2018-03-22T03:35:12.014Z,54.00
2018-03-22T03:37:41.061Z,54.00
2018-03-22T03:40:10.126Z,53.90
2018-03-22T03:42:39.169Z,54.40
2018-03-22T03:45:08.271Z,54.30
2018-03-22T03:47:37.303Z,54.50
2018-03-22T03:50:06.317Z,54.50
2018-03-22T03:52:35.369Z,55.30
2018-03-22T03:55:04.410Z,54.90
2018-03-22T03:57:34.222Z,54.80
2018-03-22T04:00:03.246Z,54.70
2018-03-22T04:02:32.310Z,54.60
2018-03-22T04:05:03.135Z,54.30
2018-03-22T04:07:32.202Z,54.30
2018-03-22T04:10:01.234Z,54.40
2018-03-22T04:12:30.313Z,54.30
2018-03-22T04:15:00.103Z,54.40
2018-03-22T04:17:29.178Z,54.30
2018-03-22T04:19:58.210Z,55.00
2018-03-22T04:22:28.047Z,54.50
2018-03-22T04:24:57.065Z,54.50
2018-03-22T04:27:26.120Z,54.60
2018-03-22T04:29:55.923Z,54.50
2018-03-22T04:32:25.002Z,54.50
2018-03-22T04:34:54.014Z,54.50
2018-03-22T04:37:23.077Z,54.30
2018-03-22T04:39:52.099Z,54.20
2018-03-22T04:42:21.167Z,54.00
2018-03-22T04:44:50.193Z,54.20
2018-03-22T04:47:19.250Z,54.30
2018-03-22T04:49:48.266Z,54.10
2018-03-22T04:52:18.082Z,54.40
2018-03-22T04:54:47.114Z,54.30
2018-03-22T04:57:16.167Z,54.40
2018-03-22T04:59:45.962Z,54.60
2018-03-22T05:02:15.032Z,54.60
2018-03-22T05:04:44.092Z,54.50
2018-03-22T05:07:13.119Z,54.70
2018-03-22T05:09:42.190Z,54.80
2018-03-22T05:12:11.215Z,54.80
2018-03-22T05:14:40.236Z,54.90
2018-03-22T05:17:09.320Z,54.80
2018-03-22T05:19:38.363Z,55.00
2018-03-22T05:22:07.396Z,54.70
2018-03-22T05:24:37.230Z,54.80
2018-03-22T05:27:06.244Z,54.80
2018-03-22T05:29:35.275Z,54.60
2018-03-22T05:32:04.334Z,54.40
2018-03-22T05:34:33.387Z,54.60
2018-03-22T05:37:03.174Z,55.30
2018-03-22T05:39:32.229Z,55.30
2018-03-22T05:42:01.263Z,55.30
2018-03-22T05:44:30.693Z,55.30
2018-03-22T05:46:59.753Z,55.60
2018-03-22T05:49:28.787Z,55.50
2018-03-22T05:51:57.860Z,55.30
2018-03-22T05:54:27.683Z,55.00
2018-03-22T05:56:56.712Z,55.00
2018-03-22T05:59:25.764Z,54.90
2018-03-22T06:01:54.794Z,54.40
2018-03-22T06:04:23.846Z,54.10
2018-03-22T06:06:53.646Z,54.30
2018-03-22T06:09:23.462Z,54.00
2018-03-22T06:11:52.531Z,54.00
2018-03-22T06:14:21.575Z,54.10
2018-03-22T06:16:50.640Z,54.00
2018-03-22T06:19:20.475Z,53.50
2018-03-22T06:21:49.557Z,53.40
2018-03-22T06:24:19.383Z,52.60
2018-03-22T06:26:49.212Z,52.60
2018-03-22T06:29:18.299Z,52.60
2018-03-22T06:31:47.335Z,53.20
2018-03-22T06:34:16.406Z,53.50
2018-03-22T06:36:47.064Z,53.70
2018-03-22T06:39:16.123Z,53.50
2018-03-22T06:41:45.171Z,52.80
2018-03-22T06:44:14.400Z,52.60
2018-03-22T06:46:43.435Z,52.10
2018-03-22T06:49:12.477Z,51.90
2018-03-22T06:51:41.530Z,51.80
2018-03-22T06:54:11.358Z,52.00
2018-03-22T06:56:40.424Z,52.00
2018-03-22T06:59:09.489Z,51.60
2018-03-22T07:01:38.526Z,51.20
2018-03-22T07:04:08.362Z,50.90
2018-03-22T07:06:37.415Z,50.90
2018-03-22T07:09:06.484Z,50.50
2018-03-22T07:11:36.606Z,49.70
2018-03-22T07:14:05.644Z,49.70
2018-03-22T07:16:34.689Z,49.30
2018-03-22T07:19:03.738Z,49.10
2018-03-22T07:21:32.751Z,47.40
2018-03-22T07:24:01.819Z,46.50
2018-03-22T07:26:30.835Z,45.80
2018-03-22T07:28:59.891Z,43.90
2018-03-22T07:31:29.675Z,42.70
2018-03-22T07:33:58.727Z,42.60
2018-03-22T07:36:27.752Z,42.80
2018-03-22T07:38:56.814Z,43.30
2018-03-22T07:41:25.886Z,43.70
2018-03-22T07:43:54.931Z,44.30
2018-03-22T07:46:23.954Z,44.20
2018-03-22T07:48:53.029Z,44.50
2018-03-22T07:51:22.056Z,44.60
2018-03-22T07:53:51.887Z,42.90
2018-03-22T07:56:20.945Z,42.70
2018-03-22T07:58:50.015Z,41.60
2018-03-22T08:01:19.035Z,40.80
2018-03-22T08:03:56.079Z,40.10
2018-03-22T08:06:26.777Z,38.40
2018-03-22T08:08:55.871Z,38.40
2018-03-22T08:11:24.924Z,37.90
2018-03-22T08:13:53.958Z,36.50
2018-03-22T08:16:23.005Z,35.90
2018-03-22T08:18:52.086Z,34.70
2018-03-22T08:21:21.129Z,33.50
2018-03-22T08:23:50.918Z,34.00
2018-03-22T08:26:21.046Z,33.90
2018-03-22T08:28:50.018Z,33.90
2018-03-22T08:31:19.058Z,33.60
2018-03-22T08:33:48.079Z,34.40
2018-03-22T08:36:17.129Z,34.30
2018-03-22T08:38:46.182Z,34.60
2018-03-22T08:41:15.980Z,34.80
2018-03-22T08:43:44.997Z,34.70
2018-03-22T08:46:14.016Z,34.40
2018-03-22T08:48:43.103Z,34.90
2018-03-22T08:51:12.879Z,35.50
2018-03-22T08:53:41.896Z,35.50
2018-03-22T08:56:10.958Z,35.40
2018-03-22T08:58:39.999Z,34.60
2018-03-22T09:01:09.063Z,34.80
2018-03-22T09:03:38.094Z,34.20
2018-03-22T09:06:07.185Z,33.70
2018-03-22T09:08:36.218Z,32.80
2018-03-22T09:11:05.245Z,31.70
2018-03-22T09:13:34.302Z,32.00
2018-03-22T09:16:03.322Z,28.60
2018-03-22T09:18:32.335Z,24.30
2018-03-22T09:21:01.393Z,23.90
2018-03-22T09:23:30.409Z,24.20
2018-03-22T09:25:59.438Z,23.80
2018-03-22T09:28:28.478Z,25.20
2018-03-22T09:30:57.502Z,26.30
2018-03-22T09:33:27.277Z,23.70
2018-03-22T09:35:56.316Z,23.60
2018-03-22T09:38:26.115Z,24.10
2018-03-22T09:40:55.173Z,24.00
2018-03-22T09:43:24.242Z,24.40
2018-03-22T09:45:53.255Z,22.10
2018-03-22T09:48:22.257Z,23.10
2018-03-22T09:50:51.301Z,24.70
2018-03-22T09:53:20.306Z,23.50
2018-03-22T09:55:49.364Z,22.80
2018-03-22T09:58:18.442Z,19.90
2018-03-22T10:00:47.446Z,20.80
2018-03-22T10:03:16.519Z,21.90
2018-03-22T10:05:45.532Z,21.80
2018-03-22T10:08:14.586Z,23.00
2018-03-22T10:10:43.611Z,24.00
2018-03-22T10:13:12.655Z,21.60
2018-03-22T10:15:41.666Z,22.00
2018-03-22T10:18:10.916Z,20.40
2018-03-22T10:20:39.944Z,19.80
2018-03-22T10:23:08.941Z,19.50
2018-03-22T10:25:37.986Z,20.30
2018-03-22T10:28:07.902Z,20.50
2018-03-22T10:30:37.678Z,19.80
2018-03-22T10:33:06.705Z,19.80
2018-03-22T10:35:35.733Z,19.60
2018-03-22T10:38:04.822Z,20.90
2018-03-22T10:40:33.851Z,19.90
2018-03-22T10:43:02.854Z,21.30
2018-03-22T10:45:31.946Z,21.60
2018-03-22T10:48:00.980Z,23.70
2018-03-22T10:50:29.990Z,21.30
2018-03-22T10:52:59.123Z,23.10
2018-03-22T10:55:28.133Z,23.30
2018-03-22T10:57:57.147Z,23.40
2018-03-22T11:00:31.754Z,23.00
2018-03-22T11:03:06.397Z,23.60
2018-03-22T11:05:36.167Z,23.70
2018-03-22T11:08:05.209Z,23.70
2018-03-22T11:10:34.239Z,25.00
2018-03-22T11:13:03.264Z,24.80
2018-03-22T11:15:32.299Z,24.50
2018-03-22T11:18:01.309Z,24.80
2018-03-22T11:20:30.466Z,25.80
2018-03-22T11:22:59.475Z,26.70
2018-03-22T11:25:28.479Z,26.50
2018-03-22T11:27:57.563Z,25.20
2018-03-22T11:30:26.572Z,25.10
2018-03-22T11:32:55.604Z,25.00
2018-03-22T11:35:25.449Z,24.10
2018-03-22T11:37:55.263Z,22.90
2018-03-22T11:40:24.324Z,22.90
2018-03-22T11:42:53.742Z,21.40
2018-03-22T11:45:23.542Z,22.40
2018-03-22T11:47:53.561Z,22.30
2018-03-22T11:50:22.646Z,22.20
2018-03-22T11:52:51.638Z,22.30
2018-03-22T11:55:21.118Z,23.60
2018-03-22T11:57:50.192Z,23.30
2018-03-22T12:00:19.298Z,21.40
2018-03-22T12:02:48.397Z,22.80
2018-03-22T12:05:17.510Z,23.40
2018-03-22T12:07:46.622Z,23.90
2018-03-22T12:10:16.523Z,25.20
2018-03-22T12:12:45.631Z,25.20
2018-03-22T12:15:15.435Z,27.20
2018-03-22T12:17:44.567Z,27.10
2018-03-22T12:20:15.504Z,27.90
2018-03-22T12:22:44.555Z,28.00
2018-03-22T12:25:13.602Z,28.80
2018-03-22T12:27:42.658Z,30.00
2018-03-22T12:30:11.682Z,30.50
2018-03-22T12:32:40.752Z,31.00
2018-03-22T12:35:10.542Z,32.40
2018-03-22T12:37:39.601Z,32.40
2018-03-22T12:40:08.614Z,32.80
2018-03-22T12:42:38.179Z,35.00
2018-03-22T12:45:08.350Z,34.30
2018-03-22T12:47:37.669Z,34.20
2018-03-22T12:50:06.688Z,36.20
2018-03-22T12:52:35.713Z,36.50
2018-03-22T12:55:04.746Z,37.80
2018-03-22T12:57:33.761Z,37.50
2018-03-22T13:00:02.840Z,39.40
2018-03-22T13:02:31.822Z,41.30
2018-03-22T13:05:00.859Z,43.90
2018-03-22T13:07:29.895Z,45.20
2018-03-22T13:09:58.941Z,47.00
2018-03-22T13:12:27.938Z,46.30
2018-03-22T13:14:56.978Z,47.40
2018-03-22T13:17:25.986Z,48.60
2018-03-22T13:19:55.073Z,47.60
2018-03-22T13:22:28.013Z,47.70
2018-03-22T13:24:57.086Z,47.30
2018-03-22T13:27:26.267Z,46.20
2018-03-22T13:29:57.430Z,44.50
2018-03-22T13:32:26.648Z,44.50
2018-03-22T13:34:55.674Z,44.40
2018-03-22T13:37:24.722Z,43.00
2018-03-22T13:39:53.776Z,45.00
2018-03-22T13:42:22.844Z,46.20
2018-03-22T13:44:51.864Z,47.00
2018-03-22T13:47:20.886Z,46.30
2018-03-22T13:49:49.977Z,46.20
2018-03-22T13:52:19.015Z,46.50
2018-03-22T13:54:48.050Z,48.00
2018-03-22T13:57:17.863Z,45.30
2018-03-22T13:59:47.639Z,43.90
2018-03-22T14:02:16.703Z,43.80
2018-03-22T14:04:45.723Z,43.60
2018-03-22T14:07:14.844Z,42.00
2018-03-22T14:09:44.636Z,41.60
2018-03-22T14:12:13.665Z,41.60
2018-03-22T14:14:42.720Z,42.50
2018-03-22T14:17:12.608Z,43.80
2018-03-22T14:19:41.673Z,43.80
2018-03-22T14:22:11.905Z,45.70
2018-03-22T14:24:41.022Z,46.50
2018-03-22T14:27:10.061Z,49.30
2018-03-22T14:29:39.095Z,50.30
2018-03-22T14:32:08.219Z,50.20
2018-03-22T14:34:37.278Z,50.10
2018-03-22T14:37:06.367Z,49.90
2018-03-22T14:39:35.416Z,50.10
2018-03-22T14:42:04.580Z,49.90
2018-03-22T14:44:33.613Z,50.50
2018-03-22T14:47:02.640Z,51.10
2018-03-22T14:49:31.738Z,50.50
2018-03-22T14:52:00.767Z,50.20
2018-03-22T14:54:29.809Z,51.20
2018-03-22T14:56:58.884Z,51.40
2018-03-22T14:59:27.895Z,50.60
2018-03-22T15:01:56.919Z,50.80
2018-03-22T15:04:25.966Z,52.60
2018-03-22T15:06:55.057Z,54.30
2018-03-22T15:09:24.391Z,54.20
2018-03-22T15:11:54.308Z,54.40
2018-03-22T15:14:23.351Z,54.30
2018-03-22T15:16:53.541Z,56.80
2018-03-22T15:19:22.791Z,57.10
2018-03-22T15:21:51.831Z,57.70
